Terminal Aerodrome Forecast
Issued by NWS

Home | Current Version | Previous Version | Graphics & Text | Print | Product List | Glossary On
Versions: 1 2 3 4 5 6 7 8 9 10 11 12 13 14 15 16 17 18 19 20 21 22 23 24 25 26 27
000
FTUS43 KICT 200900 AAA
TAFCNU
TAF AMD
KCNU 200930Z 2010/2106 19006KT 3SM BR SCT006
      TEMPO 2010/2012 1SM BR BKN006
     FM201500 21009KT P6SM SCT025
     FM210000 19006KT P6SM SCT150=

USA.gov is the U.S. government's official web portal to all federal, state and local government web resources and services.